sensor_id;sensor_type;location;lat;lon;timestamp;P1;durP1;ratioP1;P2;durP2;ratioP2
2656;SDS011;1338;48.176;11.792;2022-07-18T00:02:21;7.33;;;6.07;;
2656;SDS011;1338;48.176;11.792;2022-07-18T00:04:50;6.50;;;5.80;;
2656;SDS011;1338;48.176;11.792;2022-07-18T00:07:19;7.50;;;6.80;;
2656;SDS011;1338;48.176;11.792;2022-07-18T00:09:47;8.10;;;6.80;;
2656;SDS011;1338;48.176;11.792;2022-07-18T00:12:15;6.47;;;5.97;;
2656;SDS011;1338;48.176;11.792;2022-07-18T00:14:44;6.70;;;6.10;;
2656;SDS011;1338;48.176;11.792;2022-07-18T00:17:12;6.93;;;6.27;;
2656;SDS011;1338;48.176;11.792;2022-07-18T00:19:41;6.60;;;6.10;;
2656;SDS011;1338;48.176;11.792;2022-07-18T00:22:10;6.50;;;5.90;;
2656;SDS011;1338;48.176;11.792;2022-07-18T00:24:39;6.57;;;6.03;;
2656;SDS011;1338;48.176;11.792;2022-07-18T00:27:07;6.70;;;6.10;;
2656;SDS011;1338;48.176;11.792;2022-07-18T00:29:35;6.47;;;5.90;;
2656;SDS011;1338;48.176;11.792;2022-07-18T00:32:04;6.70;;;6.03;;
2656;SDS011;1338;48.176;11.792;2022-07-18T00:34:34;6.90;;;6.40;;
2656;SDS011;1338;48.176;11.792;2022-07-18T00:37:02;7.00;;;6.50;;
2656;SDS011;1338;48.176;11.792;2022-07-18T00:39:32;8.03;;;6.57;;
2656;SDS011;1338;48.176;11.792;2022-07-18T00:42:00;7.50;;;6.90;;
2656;SDS011;1338;48.176;11.792;2022-07-18T00:44:29;6.70;;;6.27;;
2656;SDS011;1338;48.176;11.792;2022-07-18T00:47:00;7.00;;;6.50;;
2656;SDS011;1338;48.176;11.792;2022-07-18T00:49:29;7.03;;;6.43;;
2656;SDS011;1338;48.176;11.792;2022-07-18T00:51:59;7.97;;;7.10;;
2656;SDS011;1338;48.176;11.792;2022-07-18T00:54:27;6.50;;;6.00;;
2656;SDS011;1338;48.176;11.792;2022-07-18T00:56:59;6.77;;;6.27;;
2656;SDS011;1338;48.176;11.792;2022-07-18T00:59:27;6.43;;;5.93;;
2656;SDS011;1338;48.176;11.792;2022-07-18T01:02:11;6.60;;;6.10;;
2656;SDS011;1338;48.176;11.792;2022-07-18T01:04:39;6.53;;;6.03;;
2656;SDS011;1338;48.176;11.792;2022-07-18T01:07:08;6.60;;;6.00;;
2656;SDS011;1338;48.176;11.792;2022-07-18T01:09:36;6.90;;;6.40;;
2656;SDS011;1338;48.176;11.792;2022-07-18T01:12:07;6.73;;;6.23;;
2656;SDS011;1338;48.176;11.792;2022-07-18T01:14:36;6.60;;;6.20;;
2656;SDS011;1338;48.176;11.792;2022-07-18T01:17:11;7.20;;;6.70;;
2656;SDS011;1338;48.176;11.792;2022-07-18T01:19:41;6.60;;;6.17;;
2656;SDS011;1338;48.176;11.792;2022-07-18T01:22:11;6.70;;;6.20;;
2656;SDS011;1338;48.176;11.792;2022-07-18T01:24:39;7.10;;;6.50;;
2656;SDS011;1338;48.176;11.792;2022-07-18T01:27:08;6.87;;;6.27;;
2656;SDS011;1338;48.176;11.792;2022-07-18T01:29:36;6.50;;;6.00;;
2656;SDS011;1338;48.176;11.792;2022-07-18T01:32:05;7.87;;;7.07;;
2656;SDS011;1338;48.176;11.792;2022-07-18T01:34:35;7.33;;;6.60;;
2656;SDS011;1338;48.176;11.792;2022-07-18T01:37:04;7.57;;;7.07;;
2656;SDS011;1338;48.176;11.792;2022-07-18T01:39:34;7.27;;;6.67;;
2656;SDS011;1338;48.176;11.792;2022-07-18T01:42:03;7.00;;;6.43;;
2656;SDS011;1338;48.176;11.792;2022-07-18T01:44:33;7.20;;;6.70;;
2656;SDS011;1338;48.176;11.792;2022-07-18T01:47:02;7.23;;;6.53;;
2656;SDS011;1338;48.176;11.792;2022-07-18T01:49:31;7.83;;;7.23;;
2656;SDS011;1338;48.176;11.792;2022-07-18T01:52:00;6.87;;;6.47;;
2656;SDS011;1338;48.176;11.792;2022-07-18T01:54:31;7.50;;;6.90;;
2656;SDS011;1338;48.176;11.792;2022-07-18T01:57:02;7.40;;;6.90;;
2656;SDS011;1338;48.176;11.792;2022-07-18T01:59:32;7.20;;;6.70;;
2656;SDS011;1338;48.176;11.792;2022-07-18T02:02:02;7.87;;;7.27;;
2656;SDS011;1338;48.176;11.792;2022-07-18T02:04:35;7.17;;;6.57;;
2656;SDS011;1338;48.176;11.792;2022-07-18T02:07:21;6.93;;;6.43;;
2656;SDS011;1338;48.176;11.792;2022-07-18T02:09:49;7.50;;;6.80;;
2656;SDS011;1338;48.176;11.792;2022-07-18T02:12:19;7.43;;;6.93;;
2656;SDS011;1338;48.176;11.792;2022-07-18T02:14:47;7.07;;;6.57;;
2656;SDS011;1338;48.176;11.792;2022-07-18T02:17:15;8.40;;;7.80;;
2656;SDS011;1338;48.176;11.792;2022-07-18T02:19:45;7.50;;;6.90;;
2656;SDS011;1338;48.176;11.792;2022-07-18T02:22:14;7.63;;;7.13;;
2656;SDS011;1338;48.176;11.792;2022-07-18T02:24:42;8.70;;;7.90;;
2656;SDS011;1338;48.176;11.792;2022-07-18T02:27:10;8.03;;;7.37;;
2656;SDS011;1338;48.176;11.792;2022-07-18T02:29:40;7.67;;;7.07;;
2656;SDS011;1338;48.176;11.792;2022-07-18T02:32:08;8.53;;;7.93;;
2656;SDS011;1338;48.176;11.792;2022-07-18T02:34:36;8.27;;;7.57;;
2656;SDS011;1338;48.176;11.792;2022-07-18T02:37:04;8.53;;;7.90;;
2656;SDS011;1338;48.176;11.792;2022-07-18T02:39:33;8.77;;;8.07;;
2656;SDS011;1338;48.176;11.792;2022-07-18T02:42:01;8.33;;;7.73;;
2656;SDS011;1338;48.176;11.792;2022-07-18T02:44:29;8.00;;;7.50;;
2656;SDS011;1338;48.176;11.792;2022-07-18T02:46:59;8.50;;;7.80;;
2656;SDS011;1338;48.176;11.792;2022-07-18T02:49:27;8.30;;;7.70;;
2656;SDS011;1338;48.176;11.792;2022-07-18T02:51:56;8.57;;;7.97;;
2656;SDS011;1338;48.176;11.792;2022-07-18T02:54:27;8.57;;;7.87;;
2656;SDS011;1338;48.176;11.792;2022-07-18T02:56:56;8.03;;;7.20;;
2656;SDS011;1338;48.176;11.792;2022-07-18T02:59:25;8.73;;;8.03;;
2656;SDS011;1338;48.176;11.792;2022-07-18T03:01:54;7.77;;;7.27;;
2656;SDS011;1338;48.176;11.792;2022-07-18T03:04:24;8.70;;;7.93;;
2656;SDS011;1338;48.176;11.792;2022-07-18T03:06:52;7.77;;;7.17;;
2656;SDS011;1338;48.176;11.792;2022-07-18T03:09:21;8.33;;;7.73;;
2656;SDS011;1338;48.176;11.792;2022-07-18T03:11:49;8.53;;;7.67;;
2656;SDS011;1338;48.176;11.792;2022-07-18T03:14:17;9.10;;;7.90;;
2656;SDS011;1338;48.176;11.792;2022-07-18T03:16:45;8.40;;;7.80;;
2656;SDS011;1338;48.176;11.792;2022-07-18T03:19:13;7.93;;;7.33;;
2656;SDS011;1338;48.176;11.792;2022-07-18T03:21:43;9.40;;;8.40;;
2656;SDS011;1338;48.176;11.792;2022-07-18T03:24:11;9.10;;;8.20;;
2656;SDS011;1338;48.176;11.792;2022-07-18T03:26:41;9.90;;;7.80;;
2656;SDS011;1338;48.176;11.792;2022-07-18T03:29:09;8.10;;;7.50;;
2656;SDS011;1338;48.176;11.792;2022-07-18T03:31:38;8.83;;;8.13;;
2656;SDS011;1338;48.176;11.792;2022-07-18T03:34:07;8.50;;;7.80;;
2656;SDS011;1338;48.176;11.792;2022-07-18T03:36:35;8.17;;;7.47;;
2656;SDS011;1338;48.176;11.792;2022-07-18T03:39:05;8.23;;;7.73;;
2656;SDS011;1338;48.176;11.792;2022-07-18T03:41:34;9.40;;;8.43;;
2656;SDS011;1338;48.176;11.792;2022-07-18T03:44:03;8.27;;;7.67;;
2656;SDS011;1338;48.176;11.792;2022-07-18T03:46:32;8.63;;;7.93;;
2656;SDS011;1338;48.176;11.792;2022-07-18T03:49:02;8.30;;;7.70;;
2656;SDS011;1338;48.176;11.792;2022-07-18T03:51:30;9.10;;;8.20;;
2656;SDS011;1338;48.176;11.792;2022-07-18T03:53:59;8.93;;;8.23;;
2656;SDS011;1338;48.176;11.792;2022-07-18T03:56:28;8.10;;;7.50;;
2656;SDS011;1338;48.176;11.792;2022-07-18T03:58:57;9.10;;;8.40;;
2656;SDS011;1338;48.176;11.792;2022-07-18T04:01:25;9.13;;;8.43;;
2656;SDS011;1338;48.176;11.792;2022-07-18T04:03:54;8.77;;;8.00;;
2656;SDS011;1338;48.176;11.792;2022-07-18T04:06:22;8.47;;;7.70;;
2656;SDS011;1338;48.176;11.792;2022-07-18T04:08:50;8.23;;;7.53;;
2656;SDS011;1338;48.176;11.792;2022-07-18T04:11:18;8.60;;;7.87;;
2656;SDS011;1338;48.176;11.792;2022-07-18T04:13:51;9.87;;;7.97;;
2656;SDS011;1338;48.176;11.792;2022-07-18T04:16:21;8.13;;;7.40;;
2656;SDS011;1338;48.176;11.792;2022-07-18T04:18:49;8.13;;;7.43;;
2656;SDS011;1338;48.176;11.792;2022-07-18T04:21:18;8.43;;;7.50;;
2656;SDS011;1338;48.176;11.792;2022-07-18T04:23:46;7.43;;;6.83;;
2656;SDS011;1338;48.176;11.792;2022-07-18T04:26:15;13.70;;;8.07;;
2656;SDS011;1338;48.176;11.792;2022-07-18T04:28:43;10.03;;;8.60;;
2656;SDS011;1338;48.176;11.792;2022-07-18T04:31:13;9.40;;;8.23;;
2656;SDS011;1338;48.176;11.792;2022-07-18T04:33:41;9.93;;;8.20;;
2656;SDS011;1338;48.176;11.792;2022-07-18T04:36:10;8.83;;;8.03;;
2656;SDS011;1338;48.176;11.792;2022-07-18T04:38:38;9.33;;;8.40;;
2656;SDS011;1338;48.176;11.792;2022-07-18T04:41:06;8.00;;;7.40;;
2656;SDS011;1338;48.176;11.792;2022-07-18T04:43:35;8.50;;;7.80;;
2656;SDS011;1338;48.176;11.792;2022-07-18T04:46:03;8.47;;;7.87;;
2656;SDS011;1338;48.176;11.792;2022-07-18T04:48:33;9.27;;;8.47;;
2656;SDS011;1338;48.176;11.792;2022-07-18T04:51:01;8.80;;;8.10;;
2656;SDS011;1338;48.176;11.792;2022-07-18T04:53:29;8.70;;;8.10;;
2656;SDS011;1338;48.176;11.792;2022-07-18T04:55:57;9.60;;;8.60;;
2656;SDS011;1338;48.176;11.792;2022-07-18T04:58:26;9.13;;;8.43;;
2656;SDS011;1338;48.176;11.792;2022-07-18T05:00:54;8.53;;;7.80;;
2656;SDS011;1338;48.176;11.792;2022-07-18T05:03:23;8.00;;;7.40;;
2656;SDS011;1338;48.176;11.792;2022-07-18T05:05:52;8.70;;;7.80;;
2656;SDS011;1338;48.176;11.792;2022-07-18T05:08:20;8.20;;;7.60;;
2656;SDS011;1338;48.176;11.792;2022-07-18T05:10:49;11.17;;;8.30;;
2656;SDS011;1338;48.176;11.792;2022-07-18T05:13:18;8.50;;;7.80;;
2656;SDS011;1338;48.176;11.792;2022-07-18T05:15:46;10.50;;;8.43;;
2656;SDS011;1338;48.176;11.792;2022-07-18T05:18:14;12.07;;;8.17;;
2656;SDS011;1338;48.176;11.792;2022-07-18T05:20:42;8.97;;;8.27;;
2656;SDS011;1338;48.176;11.792;2022-07-18T05:23:14;7.97;;;7.27;;
2656;SDS011;1338;48.176;11.792;2022-07-18T05:25:42;7.50;;;6.80;;
2656;SDS011;1338;48.176;11.792;2022-07-18T05:28:11;8.53;;;7.77;;
2656;SDS011;1338;48.176;11.792;2022-07-18T05:30:39;8.33;;;7.73;;
2656;SDS011;1338;48.176;11.792;2022-07-18T05:33:07;11.93;;;7.03;;
2656;SDS011;1338;48.176;11.792;2022-07-18T05:35:35;8.80;;;7.90;;
2656;SDS011;1338;48.176;11.792;2022-07-18T05:38:04;7.87;;;7.07;;
2656;SDS011;1338;48.176;11.792;2022-07-18T05:40:33;8.23;;;7.53;;
2656;SDS011;1338;48.176;11.792;2022-07-18T05:43:02;8.97;;;7.20;;
2656;SDS011;1338;48.176;11.792;2022-07-18T05:45:30;8.97;;;8.27;;
2656;SDS011;1338;48.176;11.792;2022-07-18T05:47:59;8.17;;;7.40;;
2656;SDS011;1338;48.176;11.792;2022-07-18T05:50:27;7.63;;;7.03;;
2656;SDS011;1338;48.176;11.792;2022-07-18T05:52:55;6.93;;;6.23;;
2656;SDS011;1338;48.176;11.792;2022-07-18T05:55:23;7.93;;;7.30;;
2656;SDS011;1338;48.176;11.792;2022-07-18T05:57:53;8.23;;;7.63;;
2656;SDS011;1338;48.176;11.792;2022-07-18T06:00:21;8.83;;;7.23;;
2656;SDS011;1338;48.176;11.792;2022-07-18T06:02:50;7.50;;;6.90;;
2656;SDS011;1338;48.176;11.792;2022-07-18T06:05:18;8.07;;;7.33;;
2656;SDS011;1338;48.176;11.792;2022-07-18T06:07:50;8.20;;;7.50;;
2656;SDS011;1338;48.176;11.792;2022-07-18T06:10:19;7.77;;;6.67;;
2656;SDS011;1338;48.176;11.792;2022-07-18T06:12:48;7.90;;;7.20;;
2656;SDS011;1338;48.176;11.792;2022-07-18T06:15:19;7.90;;;7.10;;
2656;SDS011;1338;48.176;11.792;2022-07-18T06:17:47;7.33;;;6.73;;
2656;SDS011;1338;48.176;11.792;2022-07-18T06:20:16;6.90;;;6.30;;
2656;SDS011;1338;48.176;11.792;2022-07-18T06:22:44;7.30;;;6.60;;
2656;SDS011;1338;48.176;11.792;2022-07-18T06:25:12;6.83;;;6.33;;
2656;SDS011;1338;48.176;11.792;2022-07-18T06:27:41;6.97;;;6.37;;
2656;SDS011;1338;48.176;11.792;2022-07-18T06:30:09;6.07;;;5.50;;
2656;SDS011;1338;48.176;11.792;2022-07-18T06:32:40;7.77;;;6.93;;
2656;SDS011;1338;48.176;11.792;2022-07-18T06:35:08;6.27;;;5.77;;
2656;SDS011;1338;48.176;11.792;2022-07-18T06:37:37;6.30;;;5.73;;
2656;SDS011;1338;48.176;11.792;2022-07-18T06:40:05;6.27;;;5.70;;
2656;SDS011;1338;48.176;11.792;2022-07-18T06:42:34;6.53;;;6.03;;
2656;SDS011;1338;48.176;11.792;2022-07-18T06:45:03;6.23;;;5.83;;
2656;SDS011;1338;48.176;11.792;2022-07-18T06:47:40;6.00;;;5.60;;
2656;SDS011;1338;48.176;11.792;2022-07-18T06:50:09;7.00;;;6.40;;
2656;SDS011;1338;48.176;11.792;2022-07-18T06:52:38;7.20;;;5.80;;
2656;SDS011;1338;48.176;11.792;2022-07-18T06:55:07;6.30;;;5.80;;
2656;SDS011;1338;48.176;11.792;2022-07-18T06:57:37;5.73;;;5.23;;
2656;SDS011;1338;48.176;11.792;2022-07-18T07:00:06;6.80;;;6.30;;
2656;SDS011;1338;48.176;11.792;2022-07-18T07:02:40;6.20;;;5.70;;
2656;SDS011;1338;48.176;11.792;2022-07-18T07:05:10;6.27;;;5.77;;
2656;SDS011;1338;48.176;11.792;2022-07-18T07:07:38;6.50;;;6.00;;
2656;SDS011;1338;48.176;11.792;2022-07-18T07:10:13;6.73;;;6.23;;
2656;SDS011;1338;48.176;11.792;2022-07-18T07:12:43;6.50;;;5.90;;
2656;SDS011;1338;48.176;11.792;2022-07-18T07:15:13;7.00;;;6.43;;
2656;SDS011;1338;48.176;11.792;2022-07-18T07:17:43;6.80;;;6.20;;
2656;SDS011;1338;48.176;11.792;2022-07-18T07:20:12;7.50;;;6.87;;
2656;SDS011;1338;48.176;11.792;2022-07-18T07:22:41;6.20;;;5.60;;
2656;SDS011;1338;48.176;11.792;2022-07-18T07:25:10;6.43;;;5.93;;
2656;SDS011;1338;48.176;11.792;2022-07-18T07:27:38;6.17;;;5.30;;
2656;SDS011;1338;48.176;11.792;2022-07-18T07:30:07;5.83;;;5.43;;
2656;SDS011;1338;48.176;11.792;2022-07-18T07:32:36;6.63;;;6.23;;
2656;SDS011;1338;48.176;11.792;2022-07-18T07:35:07;6.73;;;6.23;;
2656;SDS011;1338;48.176;11.792;2022-07-18T07:37:38;6.70;;;5.53;;
2656;SDS011;1338;48.176;11.792;2022-07-18T07:40:08;7.00;;;6.50;;
2656;SDS011;1338;48.176;11.792;2022-07-18T07:42:37;6.47;;;5.97;;
2656;SDS011;1338;48.176;11.792;2022-07-18T07:45:06;7.43;;;5.87;;
2656;SDS011;1338;48.176;11.792;2022-07-18T07:47:35;6.13;;;5.63;;
2656;SDS011;1338;48.176;11.792;2022-07-18T07:50:04;5.77;;;5.37;;
2656;SDS011;1338;48.176;11.792;2022-07-18T07:52:35;5.90;;;5.40;;
2656;SDS011;1338;48.176;11.792;2022-07-18T07:55:04;5.93;;;5.50;;
2656;SDS011;1338;48.176;11.792;2022-07-18T07:57:33;5.57;;;5.17;;
2656;SDS011;1338;48.176;11.792;2022-07-18T08:00:06;7.03;;;5.07;;
2656;SDS011;1338;48.176;11.792;2022-07-18T08:02:49;5.33;;;5.03;;
2656;SDS011;1338;48.176;11.792;2022-07-18T08:05:26;5.40;;;5.03;;
2656;SDS011;1338;48.176;11.792;2022-07-18T08:07:55;4.80;;;4.50;;
2656;SDS011;1338;48.176;11.792;2022-07-18T08:10:25;5.63;;;5.23;;
2656;SDS011;1338;48.176;11.792;2022-07-18T08:12:54;5.23;;;4.83;;
2656;SDS011;1338;48.176;11.792;2022-07-18T08:15:22;5.40;;;5.00;;
2656;SDS011;1338;48.176;11.792;2022-07-18T08:17:51;4.50;;;4.20;;
2656;SDS011;1338;48.176;11.792;2022-07-18T08:20:19;5.00;;;4.50;;
2656;SDS011;1338;48.176;11.792;2022-07-18T08:22:53;5.67;;;5.27;;
2656;SDS011;1338;48.176;11.792;2022-07-18T08:25:25;4.90;;;4.60;;
2656;SDS011;1338;48.176;11.792;2022-07-18T08:27:54;5.10;;;4.70;;
2656;SDS011;1338;48.176;11.792;2022-07-18T08:30:22;5.63;;;5.23;;
2656;SDS011;1338;48.176;11.792;2022-07-18T08:32:50;5.30;;;4.90;;
2656;SDS011;1338;48.176;11.792;2022-07-18T08:35:19;4.90;;;4.60;;
2656;SDS011;1338;48.176;11.792;2022-07-18T08:37:48;4.90;;;4.60;;
2656;SDS011;1338;48.176;11.792;2022-07-18T08:40:18;4.47;;;4.07;;
2656;SDS011;1338;48.176;11.792;2022-07-18T08:42:47;5.20;;;4.80;;
2656;SDS011;1338;48.176;11.792;2022-07-18T08:45:38;5.00;;;4.70;;
2656;SDS011;1338;48.176;11.792;2022-07-18T08:48:09;4.73;;;4.33;;
2656;SDS011;1338;48.176;11.792;2022-07-18T08:50:41;4.60;;;4.30;;
2656;SDS011;1338;48.176;11.792;2022-07-18T08:53:10;4.70;;;4.40;;
2656;SDS011;1338;48.176;11.792;2022-07-18T08:55:40;4.70;;;4.30;;
2656;SDS011;1338;48.176;11.792;2022-07-18T08:58:08;4.10;;;3.90;;
2656;SDS011;1338;48.176;11.792;2022-07-18T09:00:59;5.10;;;3.80;;
2656;SDS011;1338;48.176;11.792;2022-07-18T09:03:27;4.50;;;4.20;;
2656;SDS011;1338;48.176;11.792;2022-07-18T09:06:02;4.93;;;4.50;;
2656;SDS011;1338;48.176;11.792;2022-07-18T09:08:32;4.60;;;4.30;;
2656;SDS011;1338;48.176;11.792;2022-07-18T09:11:03;4.30;;;4.00;;
2656;SDS011;1338;48.176;11.792;2022-07-18T09:13:55;4.80;;;4.40;;
2656;SDS011;1338;48.176;11.792;2022-07-18T09:16:23;4.80;;;4.30;;
2656;SDS011;1338;48.176;11.792;2022-07-18T09:18:53;4.00;;;3.80;;
2656;SDS011;1338;48.176;11.792;2022-07-18T09:21:22;4.70;;;4.40;;
2656;SDS011;1338;48.176;11.792;2022-07-18T09:23:58;5.13;;;4.10;;
2656;SDS011;1338;48.176;11.792;2022-07-18T09:26:36;4.00;;;3.67;;
2656;SDS011;1338;48.176;11.792;2022-07-18T09:29:06;4.10;;;3.80;;
2656;SDS011;1338;48.176;11.792;2022-07-18T09:31:53;4.37;;;4.07;;
2656;SDS011;1338;48.176;11.792;2022-07-18T09:34:32;4.33;;;3.93;;
2656;SDS011;1338;48.176;11.792;2022-07-18T09:37:01;4.30;;;4.00;;
2656;SDS011;1338;48.176;11.792;2022-07-18T09:39:31;4.00;;;3.60;;
2656;SDS011;1338;48.176;11.792;2022-07-18T09:42:13;4.00;;;3.80;;
2656;SDS011;1338;48.176;11.792;2022-07-18T09:44:41;4.00;;;3.80;;
2656;SDS011;1338;48.176;11.792;2022-07-18T09:47:10;4.70;;;3.10;;
2656;SDS011;1338;48.176;11.792;2022-07-18T09:49:38;4.30;;;4.10;;
2656;SDS011;1338;48.176;11.792;2022-07-18T09:52:09;3.90;;;3.70;;
2656;SDS011;1338;48.176;11.792;2022-07-18T09:54:38;4.50;;;4.20;;
2656;SDS011;1338;48.176;11.792;2022-07-18T09:57:07;4.50;;;4.20;;
2656;SDS011;1338;48.176;11.792;2022-07-18T09:59:37;4.30;;;4.00;;
2656;SDS011;1338;48.176;11.792;2022-07-18T10:02:13;4.90;;;4.50;;
2656;SDS011;1338;48.176;11.792;2022-07-18T10:04:42;3.70;;;3.50;;
2656;SDS011;1338;48.176;11.792;2022-07-18T10:07:11;4.20;;;3.80;;
2656;SDS011;1338;48.176;11.792;2022-07-18T10:09:39;3.70;;;3.50;;
2656;SDS011;1338;48.176;11.792;2022-07-18T10:12:11;4.77;;;4.37;;
2656;SDS011;1338;48.176;11.792;2022-07-18T10:14:43;4.30;;;4.10;;
2656;SDS011;1338;48.176;11.792;2022-07-18T10:17:11;4.17;;;3.87;;
2656;SDS011;1338;48.176;11.792;2022-07-18T10:19:40;4.00;;;3.70;;
2656;SDS011;1338;48.176;11.792;2022-07-18T10:22:08;3.90;;;3.67;;
2656;SDS011;1338;48.176;11.792;2022-07-18T10:24:38;3.87;;;3.57;;
2656;SDS011;1338;48.176;11.792;2022-07-18T10:27:11;3.90;;;3.60;;
2656;SDS011;1338;48.176;11.792;2022-07-18T10:32:43;3.60;;;3.30;;
2656;SDS011;1338;48.176;11.792;2022-07-18T10:35:15;3.90;;;3.70;;
2656;SDS011;1338;48.176;11.792;2022-07-18T10:37:43;3.57;;;3.37;;
2656;SDS011;1338;48.176;11.792;2022-07-18T10:40:21;3.90;;;3.60;;
2656;SDS011;1338;48.176;11.792;2022-07-18T10:46:08;3.47;;;3.27;;
2656;SDS011;1338;48.176;11.792;2022-07-18T10:48:49;3.80;;;3.50;;
2656;SDS011;1338;48.176;11.792;2022-07-18T10:51:29;3.13;;;2.93;;
2656;SDS011;1338;48.176;11.792;2022-07-18T10:54:08;3.63;;;3.43;;
2656;SDS011;1338;48.176;11.792;2022-07-18T10:59:36;3.53;;;3.23;;
2656;SDS011;1338;48.176;11.792;2022-07-18T11:02:05;3.70;;;3.17;;
2656;SDS011;1338;48.176;11.792;2022-07-18T11:04:39;3.00;;;2.80;;
2656;SDS011;1338;48.176;11.792;2022-07-18T11:07:09;3.63;;;3.33;;
2656;SDS011;1338;48.176;11.792;2022-07-18T11:09:41;3.80;;;3.50;;
2656;SDS011;1338;48.176;11.792;2022-07-18T11:12:24;3.23;;;3.03;;
2656;SDS011;1338;48.176;11.792;2022-07-18T11:14:57;3.60;;;3.30;;
2656;SDS011;1338;48.176;11.792;2022-07-18T11:17:56;3.73;;;3.43;;
2656;SDS011;1338;48.176;11.792;2022-07-18T11:20:43;3.73;;;3.43;;
2656;SDS011;1338;48.176;11.792;2022-07-18T11:23:15;3.70;;;3.40;;
2656;SDS011;1338;48.176;11.792;2022-07-18T11:25:45;3.50;;;3.30;;
2656;SDS011;1338;48.176;11.792;2022-07-18T11:28:25;3.60;;;3.40;;
2656;SDS011;1338;48.176;11.792;2022-07-18T11:31:01;3.47;;;3.17;;
2656;SDS011;1338;48.176;11.792;2022-07-18T11:33:32;3.23;;;3.03;;
2656;SDS011;1338;48.176;11.792;2022-07-18T11:36:03;3.47;;;3.27;;
2656;SDS011;1338;48.176;11.792;2022-07-18T11:38:34;3.30;;;3.10;;
2656;SDS011;1338;48.176;11.792;2022-07-18T11:41:04;3.30;;;3.10;;
2656;SDS011;1338;48.176;11.792;2022-07-18T11:43:33;3.67;;;3.40;;
2656;SDS011;1338;48.176;11.792;2022-07-18T11:46:02;3.30;;;3.10;;
2656;SDS011;1338;48.176;11.792;2022-07-18T11:48:38;3.73;;;3.10;;
2656;SDS011;1338;48.176;11.792;2022-07-18T11:51:09;3.60;;;3.30;;
2656;SDS011;1338;48.176;11.792;2022-07-18T11:53:42;3.60;;;3.40;;
2656;SDS011;1338;48.176;11.792;2022-07-18T11:56:10;3.87;;;3.47;;
2656;SDS011;1338;48.176;11.792;2022-07-18T11:58:39;3.70;;;3.40;;
2656;SDS011;1338;48.176;11.792;2022-07-18T12:01:09;4.00;;;3.70;;
2656;SDS011;1338;48.176;11.792;2022-07-18T12:03:39;3.57;;;3.37;;
2656;SDS011;1338;48.176;11.792;2022-07-18T12:06:11;5.50;;;3.47;;
2656;SDS011;1338;48.176;11.792;2022-07-18T12:08:41;3.43;;;3.17;;
2656;SDS011;1338;48.176;11.792;2022-07-18T12:11:12;3.67;;;3.37;;
2656;SDS011;1338;48.176;11.792;2022-07-18T12:13:48;3.47;;;3.23;;
2656;SDS011;1338;48.176;11.792;2022-07-18T12:16:25;3.20;;;3.00;;
2656;SDS011;1338;48.176;11.792;2022-07-18T12:18:56;4.40;;;3.30;;
2656;SDS011;1338;48.176;11.792;2022-07-18T12:21:38;3.93;;;3.50;;
2656;SDS011;1338;48.176;11.792;2022-07-18T12:24:28;3.40;;;3.20;;
2656;SDS011;1338;48.176;11.792;2022-07-18T12:29:55;3.63;;;3.33;;
2656;SDS011;1338;48.176;11.792;2022-07-18T12:32:25;3.40;;;3.20;;
2656;SDS011;1338;48.176;11.792;2022-07-18T12:34:55;4.00;;;3.70;;
2656;SDS011;1338;48.176;11.792;2022-07-18T12:37:25;3.60;;;3.37;;
2656;SDS011;1338;48.176;11.792;2022-07-18T12:39:56;3.40;;;3.20;;
2656;SDS011;1338;48.176;11.792;2022-07-18T12:42:46;3.50;;;3.30;;
2656;SDS011;1338;48.176;11.792;2022-07-18T12:45:15;3.50;;;3.23;;
2656;SDS011;1338;48.176;11.792;2022-07-18T12:47:43;3.33;;;3.13;;
2656;SDS011;1338;48.176;11.792;2022-07-18T12:50:11;3.13;;;2.93;;
2656;SDS011;1338;48.176;11.792;2022-07-18T12:52:42;3.43;;;3.23;;
2656;SDS011;1338;48.176;11.792;2022-07-18T12:55:10;3.63;;;3.37;;
2656;SDS011;1338;48.176;11.792;2022-07-18T12:57:38;4.63;;;3.50;;
2656;SDS011;1338;48.176;11.792;2022-07-18T13:00:07;3.30;;;3.10;;
2656;SDS011;1338;48.176;11.792;2022-07-18T13:02:36;3.50;;;3.30;;
2656;SDS011;1338;48.176;11.792;2022-07-18T13:05:05;3.20;;;3.00;;
2656;SDS011;1338;48.176;11.792;2022-07-18T13:07:33;3.63;;;3.33;;
2656;SDS011;1338;48.176;11.792;2022-07-18T13:10:03;3.40;;;3.10;;
2656;SDS011;1338;48.176;11.792;2022-07-18T13:12:32;3.37;;;3.17;;
2656;SDS011;1338;48.176;11.792;2022-07-18T13:15:01;3.87;;;3.57;;
2656;SDS011;1338;48.176;11.792;2022-07-18T13:17:29;3.17;;;2.97;;
2656;SDS011;1338;48.176;11.792;2022-07-18T13:19:57;4.00;;;3.30;;
2656;SDS011;1338;48.176;11.792;2022-07-18T13:22:25;3.30;;;3.10;;
2656;SDS011;1338;48.176;11.792;2022-07-18T13:24:54;3.30;;;3.10;;
2656;SDS011;1338;48.176;11.792;2022-07-18T13:27:23;3.50;;;3.03;;
2656;SDS011;1338;48.176;11.792;2022-07-18T13:29:51;3.73;;;3.43;;
2656;SDS011;1338;48.176;11.792;2022-07-18T13:32:19;3.40;;;3.20;;
2656;SDS011;1338;48.176;11.792;2022-07-18T13:34:48;3.73;;;3.43;;
2656;SDS011;1338;48.176;11.792;2022-07-18T13:37:16;4.03;;;3.50;;
2656;SDS011;1338;48.176;11.792;2022-07-18T13:39:44;4.30;;;3.17;;
2656;SDS011;1338;48.176;11.792;2022-07-18T13:42:12;4.77;;;3.70;;
2656;SDS011;1338;48.176;11.792;2022-07-18T13:44:42;4.03;;;3.63;;
2656;SDS011;1338;48.176;11.792;2022-07-18T13:47:11;3.60;;;3.30;;
2656;SDS011;1338;48.176;11.792;2022-07-18T13:49:40;3.40;;;3.10;;
2656;SDS011;1338;48.176;11.792;2022-07-18T13:52:08;3.63;;;3.33;;
2656;SDS011;1338;48.176;11.792;2022-07-18T13:54:36;3.30;;;3.10;;
2656;SDS011;1338;48.176;11.792;2022-07-18T13:57:05;4.13;;;3.80;;
2656;SDS011;1338;48.176;11.792;2022-07-18T13:59:33;3.70;;;3.50;;
2656;SDS011;1338;48.176;11.792;2022-07-18T14:02:03;4.23;;;3.60;;
2656;SDS011;1338;48.176;11.792;2022-07-18T14:04:31;3.77;;;3.47;;
2656;SDS011;1338;48.176;11.792;2022-07-18T14:07:19;3.40;;;3.20;;
2656;SDS011;1338;48.176;11.792;2022-07-18T14:09:47;3.40;;;3.20;;
2656;SDS011;1338;48.176;11.792;2022-07-18T14:12:20;4.37;;;3.60;;
2656;SDS011;1338;48.176;11.792;2022-07-18T14:14:48;4.23;;;3.40;;
2656;SDS011;1338;48.176;11.792;2022-07-18T14:17:18;3.33;;;3.13;;
2656;SDS011;1338;48.176;11.792;2022-07-18T14:19:46;4.03;;;3.73;;
2656;SDS011;1338;48.176;11.792;2022-07-18T14:22:14;3.50;;;3.30;;
2656;SDS011;1338;48.176;11.792;2022-07-18T14:24:42;3.47;;;3.27;;
2656;SDS011;1338;48.176;11.792;2022-07-18T14:27:10;3.80;;;3.30;;
2656;SDS011;1338;48.176;11.792;2022-07-18T14:29:38;3.47;;;3.17;;
2656;SDS011;1338;48.176;11.792;2022-07-18T14:32:06;3.70;;;3.40;;
2656;SDS011;1338;48.176;11.792;2022-07-18T14:34:39;4.17;;;3.80;;
2656;SDS011;1338;48.176;11.792;2022-07-18T14:37:07;3.87;;;3.57;;
2656;SDS011;1338;48.176;11.792;2022-07-18T14:39:35;3.70;;;3.40;;
2656;SDS011;1338;48.176;11.792;2022-07-18T14:42:03;4.63;;;3.50;;
2656;SDS011;1338;48.176;11.792;2022-07-18T14:44:32;3.77;;;3.50;;
2656;SDS011;1338;48.176;11.792;2022-07-18T14:47:01;3.87;;;3.57;;
2656;SDS011;1338;48.176;11.792;2022-07-18T14:49:30;5.00;;;3.63;;
2656;SDS011;1338;48.176;11.792;2022-07-18T14:52:00;3.63;;;3.33;;
2656;SDS011;1338;48.176;11.792;2022-07-18T14:54:28;3.40;;;3.20;;
2656;SDS011;1338;48.176;11.792;2022-07-18T14:56:56;3.57;;;3.27;;
2656;SDS011;1338;48.176;11.792;2022-07-18T14:59:25;3.60;;;3.40;;
2656;SDS011;1338;48.176;11.792;2022-07-18T15:01:53;3.87;;;3.57;;
2656;SDS011;1338;48.176;11.792;2022-07-18T15:04:22;3.10;;;2.90;;
2656;SDS011;1338;48.176;11.792;2022-07-18T15:06:50;3.73;;;3.43;;
2656;SDS011;1338;48.176;11.792;2022-07-18T15:09:19;3.40;;;3.20;;
2656;SDS011;1338;48.176;11.792;2022-07-18T15:11:48;3.70;;;3.40;;
2656;SDS011;1338;48.176;11.792;2022-07-18T15:14:16;3.70;;;3.40;;
2656;SDS011;1338;48.176;11.792;2022-07-18T15:16:44;3.80;;;3.37;;
2656;SDS011;1338;48.176;11.792;2022-07-18T15:19:13;3.30;;;3.10;;
2656;SDS011;1338;48.176;11.792;2022-07-18T15:21:41;4.57;;;3.53;;
2656;SDS011;1338;48.176;11.792;2022-07-18T15:24:09;3.17;;;2.97;;
2656;SDS011;1338;48.176;11.792;2022-07-18T15:26:38;5.80;;;3.33;;
2656;SDS011;1338;48.176;11.792;2022-07-18T15:29:07;4.87;;;3.47;;
2656;SDS011;1338;48.176;11.792;2022-07-18T15:31:35;3.60;;;3.40;;